Observations for CHERBOURG MAUPERTUS, France (LFRC)

LFRC 200730Z AUTO 21006KT 9999 OVC019 09/08 Q1033 TEMPO 3000 DZ BKN003  
LFRC 200700Z AUTO 22006KT 9999 FEW003 OVC022 08/08 Q1033 TEMPO 3000 BR BKN001   
LFRC 200630Z AUTO 22005KT 200V270 9999 FEW003 OVC022 08/08 Q1033 TEMPO 3000 BR BKN001   
LFRC 200600Z AUTO 23005KT 9999 OVC021 07/07 Q1032 TEMPO 3000 BR BKN001  
LFRC 200530Z AUTO 22006KT 7000 OVC018 07/07 Q1032 TEMPO 3000 BR BKN001  
LFRC 200500Z AUTO 22004KT 6000 OVC016 07/07 Q1032   
LFRC 200430Z AUTO 22006KT 5000 BR OVC016 07/07 Q1032
LFRC 200400Z AUTO 22007KT 2800 BR VV/// 07/07 Q1032 
LFRC 200330Z AUTO 22005KT 1600 1000 R28/1400D BR VV/// 06/06 Q1032  
LFRC 200300Z AUTO 23007KT 6000 BKN012 06/06 Q1032   
LFRC 200230Z AUTO 24006KT 3500 0900 R28/P2000 BCFG NSC 05/05 Q1032  
LFRC 200200Z AUTO 21005KT 2600 0900 R28/P2000 BCFG NSC 05/05 Q1032  
LFRC 200130Z AUTO 23006KT 5000 BR NSC 06/05 Q1032   
LFRC 200100Z AUTO 24006KT 6000 FEW013 06/06 Q1032   
LFRC 200030Z AUTO 23007KT 5000 BR FEW007 BKN012 07/07 Q1032 
LFRC 200000Z AUTO 23006KT 5000 BR BKN017 07/07 Q1032
LFRC 192330Z AUTO 25006KT 6000 SCT010 BKN015 07/07 Q1032
LFRC 192300Z AUTO 24006KT 6000 FEW004 SCT072 06/06 Q1032
LFRC 192230Z AUTO 24006KT 5000 BR NSC 07/07 Q1032   
LFRC 192200Z AUTO 20004KT 5000 1000 R28/P2000 BR NSC 06/06 Q1031
LFRC 192130Z AUTO 20004KT 7000 SCT008 BKN074 BKN086 07/06 Q1031 
LFRC 192100Z AUTO 26005KT 9999 BKN010 07/07 Q1031   
LFRC 192030Z AUTO 26005KT 9999 SCT009 BKN080 07/06 Q1031
LFRC 192000Z AUTO 24004KT 9999 BKN009 07/06 Q1031   
LFRC 191930Z AUTO 21005KT 9999 BKN011 07/07 Q1031   
LFRC 191900Z AUTO 21005KT 9000 FEW005 SCT010 07/07 Q1031
LFRC 191830Z AUTO 20006KT 9999 BKN006 BKN026 08/07 Q1030 BECMG BKN025   
LFRC 191800Z AUTO 21007KT 9999 FEW006 OVC030 09/08 Q1030 NOSIG  
LFRC 191730Z AUTO 23007KT 9999 FEW006 BKN013 OVC033 09/08 Q1030 BECMG BKN025
LFRC 191700Z AUTO 24008KT 9999 BKN011 OVC020 09/08 Q1029 TEMPO 4000 SHRA BECMG BKN025   
LFRC 191630Z AUTO 24008KT 9999 BKN022 OVC030 10/08 Q1029 TEMPO 4000 SHRA BKN014 
LFRC 191600Z AUTO 26010KT 9999 SCT020 BKN027 OVC034 10/07 Q1029 TEMPO 4000 SHRA BKN014  
LFRC 191530Z AUTO 26008KT 9999 FEW024 OVC036 11/07 Q1029 TEMPO 4000 SHRA BKN014 
LFRC 191500Z AUTO 26007KT 9999 BKN032 OVC038 11/06 Q1029 TEMPO 4000 SHRA BKN014 
LFRC 191430Z AUTO 27007KT 9999 OVC033 11/06 Q1029 TEMPO 4000 SHRA BKN014
LFRC 191400Z AUTO 25006KT 210V300 9999 OVC035 11/05 Q1029 TEMPO 4000 SHRA BKN014
LFRC 191330Z AUTO 25006KT 9999 BKN027 OVC034 11/06 Q1029 TEMPO 4000 SHRA BKN014 
LFRC 191300Z AUTO 24006KT 210V270 9999 BKN027 OVC035 11/06 Q1029 TEMPO 4000 SHRA BKN014 
LFRC 191230Z AUTO 25004KT 230V290 9999 OVC030 11/05 Q1029 TEMPO 4000 SHRA BKN014
LFRC 191200Z AUTO 26005KT 210V310 9999 OVC031 11/05 Q1029 TEMPO 4000 SHRA BKN014
LFRC 191130Z AUTO 30004KT 9999 OVC031 10/05 Q1029 TEMPO 4000 SHRA BKN014
LFRC 191100Z AUTO 30004KT 260V320 9999 OVC032 10/04 Q1029 TEMPO 4000 SHRA BKN012
LFRC 191030Z AUTO 27005KT 220V320 9999 OVC031 10/05 Q1029 TEMPO 4000 SHRA BKN012
LFRC 191000Z AUTO 26005KT 210V290 9999 OVC032 10/04 Q1029 NOSIG 
LFRC 190930Z AUTO 23006KT 200V270 9999 OVC033 10/06 Q1028 NOSIG 
LFRC 190900Z AUTO 19004KT 9999 OVC033 09/08 Q1028 NOSIG 
LFRC 190830Z AUTO 19004KT 9999 OVC032 08/07 Q1028 NOSIG 
LFRC 190800Z AUTO 20003KT 9999 FEW010 OVC031 08/07 Q1028 TEMPO 4000 RADZ BKN004 
LFRC 190730Z AUTO 19003KT 9999 BKN011 BKN017 BKN023 07/07 Q1028 TEMPO 4000 RADZ BKN004  
LFRC 190700Z AUTO 18003KT 9999 -DZ FEW016 OVC030 07/07 Q1027 TEMPO 4000 RADZ BKN004